createdAt,value
2019-05-10T00:04:58.007Z,12.70
2019-05-10T00:13:21.753Z,15.07
2019-05-10T00:21:39.205Z,11.63
2019-05-10T00:29:56.661Z,8.50
2019-05-10T00:38:14.117Z,10.40
2019-05-10T00:46:31.721Z,9.87
2019-05-10T00:54:49.476Z,9.67
2019-05-10T01:03:06.935Z,11.23
2019-05-10T01:11:24.357Z,8.83
2019-05-10T01:19:41.900Z,9.10
2019-05-10T01:27:59.351Z,8.20
2019-05-10T01:36:16.799Z,14.33
2019-05-10T01:44:34.241Z,13.00
2019-05-10T01:52:51.685Z,9.50
2019-05-10T02:01:09.146Z,7.67
2019-05-10T02:09:26.566Z,4.70
2019-05-10T02:17:44.057Z,10.23
2019-05-10T02:26:09.589Z,11.93
2019-05-10T02:34:20.726Z,12.53
2019-05-10T02:42:38.145Z,4.97
2019-05-10T02:50:55.609Z,7.47
2019-05-10T02:59:13.929Z,13.00
2019-05-10T03:07:32.902Z,6.20
2019-05-10T03:15:51.878Z,5.57
2019-05-10T03:24:09.352Z,6.03
2019-05-10T03:32:26.778Z,6.23
2019-05-10T03:40:44.366Z,7.43
2019-05-10T03:49:01.854Z,7.30
2019-05-10T03:57:19.320Z,9.80
2019-05-10T04:05:36.764Z,6.27
2019-05-10T04:13:54.243Z,8.53
2019-05-10T04:22:12.137Z,7.43
2019-05-10T04:30:31.898Z,8.57
2019-05-10T04:38:48.756Z,6.17
2019-05-10T04:47:06.238Z,8.00
2019-05-10T04:55:23.698Z,5.60
2019-05-10T05:03:41.157Z,5.85
2019-05-10T05:11:58.632Z,6.53
2019-05-10T05:20:16.120Z,6.17
2019-05-10T05:28:33.770Z,6.33
2019-05-10T05:36:51.302Z,7.27
2019-05-10T05:45:09.002Z,6.67
2019-05-10T05:53:26.432Z,7.03
2019-05-10T06:01:43.894Z,5.50
2019-05-10T06:10:01.313Z,4.87
2019-05-10T06:18:18.768Z,6.57
2019-05-10T06:26:36.217Z,12.90
2019-05-10T06:34:53.649Z,4.47
2019-05-10T06:43:13.281Z,6.27
2019-05-10T06:51:30.290Z,8.17
2019-05-10T06:59:47.739Z,5.27
2019-05-10T07:08:14.928Z,13.70
2019-05-10T07:16:26.021Z,21.63
2019-05-10T07:24:43.764Z,4.30
2019-05-10T07:42:06.350Z,7.90
2019-05-10T07:50:19.877Z,11.10
2019-05-10T07:58:38.275Z,9.70
2019-05-10T08:06:56.584Z,14.80
2019-05-10T08:15:14.113Z,13.57
2019-05-10T08:23:31.548Z,14.60
2019-05-10T08:31:52.773Z,13.27
2019-05-10T08:40:08.511Z,13.80
2019-05-10T08:48:27.728Z,20.10
2019-05-10T08:56:46.755Z,17.50
2019-05-10T09:05:04.875Z,15.07
2019-05-10T09:13:22.932Z,16.47
2019-05-10T09:21:49.299Z,19.87
2019-05-10T09:29:59.778Z,20.53
2019-05-10T09:38:17.237Z,40.23
2019-05-10T09:46:35.630Z,15.63
2019-05-10T09:54:53.143Z,24.57
2019-05-10T10:03:12.724Z,18.55
2019-05-10T10:11:39.089Z,22.73
2019-05-10T10:19:57.925Z,20.10
2019-05-10T10:28:18.658Z,18.47
2019-05-10T10:36:40.108Z,20.27
2019-05-10T10:44:53.971Z,13.57
2019-05-10T10:53:11.401Z,13.73
2019-05-10T11:01:44.801Z,16.13
2019-05-10T11:09:48.090Z,10.90
2019-05-10T11:18:05.509Z,7.42
2019-05-10T11:26:26.749Z,10.07
2019-05-10T11:34:42.412Z,7.47
2019-05-10T11:43:01.508Z,9.33
2019-05-10T11:51:21.124Z,9.60
2019-05-10T11:59:41.304Z,8.13
2019-05-10T12:07:57.641Z,8.80
2019-05-10T12:16:16.815Z,9.53
2019-05-10T12:24:51.916Z,15.57
2019-05-10T12:32:56.183Z,12.47
2019-05-10T12:41:13.355Z,7.87
2019-05-10T12:49:31.616Z,10.40
2019-05-10T12:57:50.024Z,3.50
2019-05-10T13:06:08.662Z,2.73
2019-05-10T13:14:29.069Z,7.77
2019-05-10T13:22:45.484Z,5.90
2019-05-10T13:31:05.572Z,10.63
2019-05-10T13:39:25.552Z,9.43
2019-05-10T13:47:42.844Z,10.20
2019-05-10T13:56:00.391Z,16.47
2019-05-10T14:04:19.066Z,14.70
2019-05-10T14:12:36.879Z,11.80
2019-05-10T14:21:10.412Z,8.93
2019-05-10T14:29:34.773Z,11.93
2019-05-10T14:38:18.202Z,8.07
2019-05-10T14:46:36.089Z,8.40
2019-05-10T14:55:27.817Z,8.03
2019-05-10T15:03:46.102Z,7.30
2019-05-10T15:12:02.098Z,7.07
2019-05-10T15:20:19.905Z,8.63
2019-05-10T15:28:40.232Z,4.43
2019-05-10T15:36:56.770Z,5.40
2019-05-10T15:45:16.317Z,5.63
2019-05-10T16:02:20.998Z,3.30
2019-05-10T16:10:40.717Z,3.53
2019-05-10T16:18:57.758Z,3.23
2019-05-10T16:27:15.240Z,7.70
2019-05-10T16:35:38.657Z,15.72
2019-05-10T16:43:57.955Z,3.97
2019-05-10T16:52:11.432Z,3.30
2019-05-10T17:09:18.454Z,6.47
2019-05-10T17:17:37.032Z,3.87
2019-05-10T17:25:55.102Z,4.97
2019-05-10T17:34:22.130Z,4.60
2019-05-10T17:42:35.658Z,8.80
2019-05-10T17:50:51.967Z,4.27
2019-05-10T17:59:12.126Z,8.40
2019-05-10T18:07:29.122Z,6.03
2019-05-10T18:15:46.798Z,7.73
2019-05-10T18:24:04.426Z,8.87
2019-05-10T18:32:21.925Z,9.23
2019-05-10T18:40:39.381Z,6.30
2019-05-10T18:48:56.980Z,7.43
2019-05-10T18:57:18.955Z,8.97
2019-05-10T19:05:33.824Z,6.87
2019-05-10T19:13:54.165Z,9.43
2019-05-10T19:22:10.514Z,7.70
2019-05-10T19:30:27.939Z,9.60
2019-05-10T19:38:45.402Z,8.20
2019-05-10T19:47:02.906Z,17.40
2019-05-10T19:55:21.739Z,13.27
2019-05-10T20:03:39.622Z,21.80
2019-05-10T20:11:57.036Z,15.40
2019-05-10T20:20:45.195Z,9.17
2019-05-10T20:29:03.111Z,7.40
2019-05-10T20:37:20.884Z,9.83
2019-05-10T20:45:38.325Z,7.90
2019-05-10T20:53:55.786Z,30.27
2019-05-10T21:02:13.265Z,6.10
2019-05-10T21:10:30.675Z,22.50
2019-05-10T21:18:48.111Z,9.37
2019-05-10T21:27:05.637Z,19.57
2019-05-10T21:35:23.090Z,26.90
2019-05-10T21:43:40.669Z,30.80
2019-05-10T21:51:58.473Z,33.73
2019-05-10T22:00:17.249Z,14.53
2019-05-10T22:08:48.357Z,26.27
2019-05-10T22:16:53.913Z,41.53
2019-05-10T22:25:11.486Z,17.70
2019-05-10T22:33:29.011Z,13.13
2019-05-10T22:41:46.551Z,13.37
2019-05-10T22:50:04.165Z,35.47
2019-05-10T22:58:21.785Z,41.58
2019-05-10T23:06:39.287Z,38.67
2019-05-10T23:14:56.816Z,28.07
2019-05-10T23:23:14.326Z,22.03
2019-05-10T23:31:35.340Z,42.88
2019-05-10T23:39:51.353Z,23.67
2019-05-10T23:48:08.917Z,16.60
2019-05-10T23:56:26.697Z,15.67
